createdAt,value
2024-05-09T00:02:25.146Z,17.31
2024-05-09T00:04:55.619Z,17.28
2024-05-09T00:07:25.992Z,17.25
2024-05-09T00:09:56.289Z,17.23
2024-05-09T00:12:29.182Z,17.20
2024-05-09T00:14:59.440Z,17.18
2024-05-09T00:17:29.787Z,17.16
2024-05-09T00:20:00.274Z,17.13
2024-05-09T00:22:30.512Z,17.12
2024-05-09T00:25:00.759Z,17.10
2024-05-09T00:27:33.521Z,17.10
2024-05-09T00:30:04.286Z,17.09
2024-05-09T00:32:34.701Z,17.08
2024-05-09T00:35:05.113Z,17.06
2024-05-09T00:37:35.331Z,17.05
2024-05-09T00:40:07.400Z,17.04
2024-05-09T00:42:43.387Z,17.02
2024-05-09T00:45:13.618Z,17.01
2024-05-09T00:47:45.992Z,16.99
2024-05-09T00:50:22.733Z,16.98
2024-05-09T00:53:00.016Z,16.97
2024-05-09T00:55:30.586Z,16.95
2024-05-09T00:58:03.960Z,16.95
2024-05-09T01:00:39.266Z,16.94
2024-05-09T01:03:13.370Z,16.94
2024-05-09T01:05:45.261Z,16.93
2024-05-09T01:08:16.623Z,16.91
2024-05-09T01:10:48.766Z,16.91
2024-05-09T01:13:22.469Z,16.88
2024-05-09T01:15:54.101Z,16.88
2024-05-09T01:18:24.452Z,16.87
2024-05-09T01:20:54.871Z,16.84
2024-05-09T01:23:27.836Z,16.81
2024-05-09T01:25:58.154Z,16.81
2024-05-09T01:28:28.487Z,16.79
2024-05-09T01:30:58.800Z,16.77
2024-05-09T01:33:29.226Z,16.76
2024-05-09T01:35:59.855Z,16.75
2024-05-09T01:38:32.911Z,16.73
2024-05-09T01:41:03.379Z,16.73
2024-05-09T01:43:33.603Z,16.72
2024-05-09T01:46:03.867Z,16.71
2024-05-09T01:48:34.141Z,16.70
2024-05-09T01:51:04.683Z,16.70
2024-05-09T01:53:37.714Z,16.67
2024-05-09T01:56:08.803Z,16.68
2024-05-09T01:58:39.045Z,16.67
2024-05-09T02:01:09.307Z,16.66
2024-05-09T02:03:39.753Z,16.65
2024-05-09T02:06:10.280Z,16.64
2024-05-09T02:08:43.507Z,16.63
2024-05-09T02:11:13.835Z,16.62
2024-05-09T02:13:44.781Z,16.61
2024-05-09T02:16:16.778Z,16.60
2024-05-09T02:18:47.177Z,16.60
2024-05-09T02:21:17.455Z,16.60
2024-05-09T02:23:50.255Z,16.58
2024-05-09T02:26:20.516Z,16.59
2024-05-09T02:28:50.776Z,16.57
2024-05-09T02:31:22.504Z,16.57
2024-05-09T02:33:53.159Z,16.55
2024-05-09T02:36:23.759Z,16.52
2024-05-09T02:38:54.045Z,16.51
2024-05-09T02:41:24.929Z,16.49
2024-05-09T02:43:53.136Z,16.49
2024-05-09T02:46:23.875Z,16.48
2024-05-09T02:48:53.578Z,16.46
2024-05-09T02:51:24.070Z,16.46
2024-05-09T02:54:01.890Z,16.43
2024-05-09T02:56:32.158Z,16.44
2024-05-09T02:58:59.864Z,16.43
2024-05-09T03:01:30.367Z,16.43
2024-05-09T03:03:58.168Z,16.45
2024-05-09T03:06:28.459Z,16.45
2024-05-09T03:08:56.024Z,16.45
2024-05-09T03:11:29.335Z,16.44
2024-05-09T03:13:56.987Z,16.43
2024-05-09T03:16:27.253Z,16.43
2024-05-09T03:18:55.210Z,16.42
2024-05-09T03:21:25.546Z,16.41
2024-05-09T03:23:53.168Z,16.40
2024-05-09T03:26:23.488Z,16.39
2024-05-09T03:28:53.736Z,16.37
2024-05-09T03:31:24.041Z,16.35
2024-05-09T03:33:51.804Z,16.34
2024-05-09T03:36:22.100Z,16.33
2024-05-09T03:38:52.396Z,16.34
2024-05-09T03:41:22.921Z,16.35
2024-05-09T03:43:55.924Z,16.35
2024-05-09T03:46:23.556Z,16.38
2024-05-09T03:48:53.907Z,16.38
2024-05-09T03:51:22.831Z,16.40
2024-05-09T03:53:53.027Z,16.43
2024-05-09T03:56:20.645Z,16.46
2024-05-09T03:58:50.881Z,16.49
2024-05-09T04:01:21.324Z,16.50
2024-05-09T04:03:51.772Z,16.53
2024-05-09T04:06:24.228Z,16.54
2024-05-09T04:08:54.685Z,16.56
2024-05-09T04:11:22.419Z,16.59
2024-05-09T04:13:52.711Z,16.61
2024-05-09T04:16:23.404Z,16.63
2024-05-09T04:18:53.756Z,16.64
2024-05-09T04:21:21.363Z,16.66
2024-05-09T04:23:51.557Z,16.68
2024-05-09T04:26:19.295Z,16.70
2024-05-09T04:28:49.692Z,16.71
2024-05-09T04:31:17.332Z,16.73
2024-05-09T04:33:50.242Z,16.74
2024-05-09T04:36:17.928Z,16.74
2024-05-09T04:38:48.205Z,16.76
2024-05-09T04:41:15.854Z,16.77
2024-05-09T04:43:46.114Z,16.79
2024-05-09T04:46:14.944Z,16.83
2024-05-09T04:48:45.218Z,16.87
2024-05-09T04:51:15.472Z,16.94
2024-05-09T04:53:45.785Z,17.11
2024-05-09T04:56:13.516Z,17.23
2024-05-09T04:58:44.103Z,17.36
2024-05-09T05:01:11.831Z,17.57
2024-05-09T05:03:42.349Z,17.71
2024-05-09T05:06:10.289Z,17.90
2024-05-09T05:08:43.188Z,18.07
2024-05-09T05:11:12.640Z,18.14
2024-05-09T05:13:43.237Z,18.18
2024-05-09T05:16:10.776Z,18.21
2024-05-09T05:18:41.142Z,18.25
2024-05-09T05:21:08.887Z,18.32
2024-05-09T05:23:40.857Z,18.38
2024-05-09T05:26:11.250Z,18.41
2024-05-09T05:28:41.512Z,18.44
2024-05-09T05:31:09.076Z,18.50
2024-05-09T05:33:39.438Z,18.55
2024-05-09T05:36:08.083Z,18.62
2024-05-09T05:38:38.370Z,18.67
2024-05-09T05:41:06.077Z,18.75
2024-05-09T05:43:38.957Z,18.84
2024-05-09T05:46:06.559Z,18.95
2024-05-09T05:48:36.816Z,19.02
2024-05-09T05:51:06.331Z,19.09
2024-05-09T05:53:36.749Z,19.11
2024-05-09T05:56:05.984Z,19.13
2024-05-09T05:58:38.842Z,19.13
2024-05-09T06:01:06.469Z,19.17
2024-05-09T06:03:36.867Z,19.26
2024-05-09T06:06:05.145Z,19.34
2024-05-09T06:08:35.562Z,19.51
2024-05-09T06:11:04.126Z,19.67
2024-05-09T06:13:34.443Z,19.80
2024-05-09T06:16:05.658Z,19.88
2024-05-09T06:18:36.297Z,20.01
2024-05-09T06:21:04.145Z,20.12
2024-05-09T06:23:34.577Z,20.22
2024-05-09T06:26:02.320Z,20.33
2024-05-09T06:28:32.536Z,20.44
2024-05-09T06:31:05.156Z,20.54
2024-05-09T06:33:35.777Z,20.65
2024-05-09T06:36:03.957Z,20.76
2024-05-09T06:38:34.571Z,20.89
2024-05-09T06:41:02.264Z,21.06
2024-05-09T06:43:32.524Z,21.22
2024-05-09T06:46:00.077Z,21.38
2024-05-09T06:48:33.389Z,21.44
2024-05-09T06:51:01.289Z,21.49
2024-05-09T06:53:31.700Z,21.51
2024-05-09T06:55:59.456Z,21.48
2024-05-09T06:58:29.728Z,21.41
2024-05-09T07:00:57.327Z,21.35
2024-05-09T07:03:27.969Z,21.29
2024-05-09T07:05:58.324Z,21.19
2024-05-09T07:08:28.605Z,21.18
2024-05-09T07:10:56.259Z,21.19
2024-05-09T07:13:26.551Z,21.21
2024-05-09T07:15:54.136Z,21.23
2024-05-09T07:18:24.538Z,21.25
2024-05-09T07:20:52.250Z,21.27
2024-05-09T07:23:25.188Z,21.30
2024-05-09T07:25:52.793Z,21.39
2024-05-09T07:28:24.857Z,21.50
2024-05-09T07:30:55.137Z,21.65
2024-05-09T07:33:24.350Z,21.76
2024-05-09T07:35:54.988Z,21.88
2024-05-09T07:38:25.500Z,22.01
2024-05-09T07:40:55.816Z,22.10
2024-05-09T07:43:23.435Z,22.15
2024-05-09T07:45:55.376Z,22.19
2024-05-09T07:53:00.892Z,22.28
2024-05-09T07:53:52.396Z,22.31
2024-05-09T07:56:26.121Z,22.42
2024-05-09T07:58:54.522Z,22.49
2024-05-09T08:01:26.636Z,22.60
2024-05-09T08:03:54.860Z,22.68
2024-05-09T08:06:26.453Z,22.74
2024-05-09T08:08:57.879Z,22.79
2024-05-09T08:11:29.339Z,22.86
2024-05-09T08:13:57.075Z,22.92
2024-05-09T08:16:27.517Z,22.95
2024-05-09T08:18:55.422Z,22.98
2024-05-09T08:21:26.737Z,23.02
2024-05-09T08:23:57.018Z,23.04
2024-05-09T08:26:27.249Z,23.10
2024-05-09T08:28:54.884Z,23.14
2024-05-09T08:31:25.218Z,23.18
2024-05-09T08:33:53.166Z,23.24
2024-05-09T08:36:23.587Z,23.32
2024-05-09T08:38:51.206Z,23.39
2024-05-09T08:41:24.086Z,23.45
2024-05-09T08:43:51.827Z,23.55
2024-05-09T08:46:22.192Z,23.61
2024-05-09T08:48:52.388Z,23.65
2024-05-09T08:51:23.142Z,23.68
2024-05-09T08:53:50.752Z,23.70
2024-05-09T08:56:28.951Z,23.72
2024-05-09T08:59:01.147Z,23.76
2024-05-09T09:01:34.226Z,23.76
2024-05-09T09:04:04.368Z,23.73
2024-05-09T09:06:37.510Z,23.77
2024-05-09T09:09:05.640Z,23.82
2024-05-09T09:11:38.503Z,23.88
2024-05-09T09:14:06.085Z,23.94
2024-05-09T09:16:37.087Z,23.95
2024-05-09T09:19:05.394Z,23.97
2024-05-09T09:21:35.802Z,23.97
2024-05-09T09:24:03.750Z,23.96
2024-05-09T09:26:34.325Z,23.95
2024-05-09T09:29:04.587Z,23.93
2024-05-09T09:31:34.861Z,23.93
2024-05-09T09:34:08.619Z,23.96
2024-05-09T09:36:41.943Z,24.03
2024-05-09T09:39:10.857Z,24.06
2024-05-09T09:41:42.707Z,24.10
2024-05-09T09:44:13.100Z,24.13
2024-05-09T09:46:44.380Z,24.19
2024-05-09T09:49:12.392Z,24.24
2024-05-09T09:51:44.211Z,24.27
2024-05-09T09:54:13.271Z,24.29
2024-05-09T09:56:44.384Z,24.32
2024-05-09T09:59:15.804Z,24.31
2024-05-09T10:01:48.248Z,24.33
2024-05-09T10:04:19.005Z,24.32
2024-05-09T10:06:53.537Z,24.30
2024-05-09T10:09:22.759Z,24.29
2024-05-09T10:11:59.992Z,24.26
2024-05-09T10:14:33.583Z,24.28
2024-05-09T10:17:08.382Z,24.26
2024-05-09T10:19:36.078Z,24.28
2024-05-09T10:22:08.987Z,24.32
2024-05-09T10:24:48.174Z,24.29
2024-05-09T10:27:19.938Z,24.31
2024-05-09T10:29:57.840Z,24.30
2024-05-09T10:32:30.045Z,24.38
2024-05-09T10:35:01.286Z,24.41
2024-05-09T10:37:31.853Z,24.48
2024-05-09T10:40:00.247Z,24.65
2024-05-09T10:42:30.970Z,24.90
2024-05-09T10:45:03.223Z,25.24
2024-05-09T10:47:33.766Z,25.64
2024-05-09T10:50:01.753Z,26.09
2024-05-09T10:52:32.015Z,26.57
2024-05-09T10:55:00.967Z,27.01
2024-05-09T10:57:41.999Z,27.39
2024-05-09T11:00:19.448Z,27.78
2024-05-09T11:02:58.347Z,28.22
2024-05-09T11:05:26.414Z,28.58
2024-05-09T11:07:56.838Z,28.98
2024-05-09T11:10:33.340Z,29.29
2024-05-09T11:13:04.601Z,29.55
2024-05-09T11:15:41.868Z,29.84
2024-05-09T11:18:25.619Z,30.24
2024-05-09T11:20:55.897Z,30.68
2024-05-09T11:23:27.550Z,31.06
2024-05-09T11:25:56.842Z,31.43
2024-05-09T11:28:29.114Z,31.79
2024-05-09T11:31:09.849Z,32.10
2024-05-09T11:33:41.822Z,32.38
2024-05-09T11:36:10.531Z,32.70
2024-05-09T11:38:40.853Z,32.94
2024-05-09T11:41:08.582Z,33.11
2024-05-09T11:43:38.786Z,33.32
2024-05-09T11:46:09.199Z,33.57
2024-05-09T11:48:39.810Z,33.77
2024-05-09T11:51:07.671Z,34.04
2024-05-09T11:53:37.896Z,34.34
2024-05-09T11:56:06.143Z,34.60
2024-05-09T11:58:38.362Z,34.82
2024-05-09T12:01:08.834Z,35.03
2024-05-09T12:03:39.575Z,35.22
2024-05-09T12:06:07.440Z,35.44
2024-05-09T12:08:37.800Z,35.64
2024-05-09T12:11:05.905Z,35.86
2024-05-09T12:13:36.397Z,36.04
2024-05-09T12:16:04.273Z,36.18
2024-05-09T12:18:37.298Z,36.36
2024-05-09T12:21:06.070Z,36.58
2024-05-09T12:23:36.277Z,36.94
2024-05-09T12:26:04.232Z,37.33
2024-05-09T12:28:34.489Z,37.64
2024-05-09T12:31:02.187Z,37.99
2024-05-09T12:33:32.513Z,38.22
2024-05-09T12:36:03.160Z,38.30
2024-05-09T12:38:33.407Z,38.39
2024-05-09T12:41:01.178Z,38.59
2024-05-09T12:43:31.497Z,38.90
2024-05-09T12:45:59.212Z,39.15
2024-05-09T12:48:29.758Z,39.32
2024-05-09T12:50:57.863Z,39.49
2024-05-09T12:53:30.856Z,39.61
2024-05-09T12:56:02.239Z,39.67
2024-05-09T12:58:34.376Z,39.61
2024-05-09T13:01:02.118Z,39.58
2024-05-09T13:03:32.668Z,39.42
2024-05-09T13:06:00.486Z,39.41
2024-05-09T13:08:33.396Z,39.48
2024-05-09T13:11:01.231Z,39.73
2024-05-09T13:13:31.847Z,40.07
2024-05-09T13:15:59.687Z,40.45
2024-05-09T13:18:30.218Z,40.68
2024-05-09T13:20:57.948Z,40.87
2024-05-09T13:23:28.213Z,41.03
2024-05-09T13:25:58.536Z,41.11
2024-05-09T13:28:31.945Z,41.25
2024-05-09T13:30:59.680Z,41.51
2024-05-09T13:33:30.020Z,41.62
2024-05-09T13:35:58.001Z,41.71
2024-05-09T13:38:28.294Z,41.92
2024-05-09T13:40:58.603Z,42.17
2024-05-09T13:43:29.241Z,42.41
2024-05-09T13:45:57.590Z,42.57
2024-05-09T13:48:28.304Z,42.74
2024-05-09T13:50:57.019Z,42.73
2024-05-09T13:53:27.892Z,42.65
2024-05-09T13:55:58.113Z,42.41
2024-05-09T13:58:28.768Z,42.38
2024-05-09T14:00:56.569Z,42.41
2024-05-09T14:03:29.934Z,42.47
2024-05-09T14:05:58.104Z,42.66
2024-05-09T14:08:28.692Z,42.75
2024-05-09T14:10:59.128Z,42.72
2024-05-09T14:13:29.410Z,42.54
2024-05-09T14:15:57.164Z,42.48
2024-05-09T14:18:27.631Z,42.72
2024-05-09T14:20:55.300Z,42.93
2024-05-09T14:23:26.194Z,42.99
2024-05-09T14:25:53.828Z,43.09
2024-05-09T14:28:28.117Z,43.14
2024-05-09T14:30:56.952Z,43.22
2024-05-09T14:33:27.943Z,43.43
2024-05-09T14:35:55.765Z,43.60
2024-05-09T14:38:26.575Z,43.72
2024-05-09T14:40:54.913Z,43.77
2024-05-09T14:43:28.107Z,43.76
2024-05-09T14:45:56.111Z,43.78
2024-05-09T14:48:27.218Z,43.68
2024-05-09T14:50:54.928Z,43.44
2024-05-09T14:53:26.639Z,43.17
2024-05-09T14:55:54.580Z,42.96
2024-05-09T14:58:27.587Z,42.76
2024-05-09T15:00:55.378Z,42.83
2024-05-09T15:03:25.768Z,42.95
2024-05-09T15:05:53.614Z,43.05
2024-05-09T15:08:24.104Z,43.07
2024-05-09T15:10:52.137Z,43.08
2024-05-09T15:13:23.784Z,43.06
2024-05-09T15:15:54.797Z,43.03
2024-05-09T15:18:25.278Z,42.98
2024-05-09T15:20:52.953Z,42.76
2024-05-09T15:23:23.495Z,42.50
2024-05-09T15:25:51.093Z,42.22
2024-05-09T15:28:21.634Z,42.00
2024-05-09T15:30:49.393Z,41.18
2024-05-09T15:33:22.416Z,39.97
2024-05-09T15:35:51.738Z,38.70
2024-05-09T15:38:22.330Z,37.48
2024-05-09T15:40:50.095Z,36.34
2024-05-09T15:43:20.451Z,35.33
2024-05-09T15:45:48.122Z,34.36
2024-05-09T15:48:21.133Z,33.51
2024-05-09T15:50:48.807Z,32.76
2024-05-09T15:53:19.096Z,32.10
2024-05-09T15:55:46.793Z,31.54
2024-05-09T15:58:17.930Z,31.04
2024-05-09T16:00:47.867Z,30.62
2024-05-09T16:03:23.427Z,30.19
2024-05-09T16:05:51.995Z,29.83
2024-05-09T16:08:22.422Z,29.50
2024-05-09T16:10:50.261Z,29.21
2024-05-09T16:13:20.881Z,28.92
2024-05-09T16:15:51.754Z,28.67
2024-05-09T16:18:22.139Z,28.44
2024-05-09T16:20:59.519Z,28.24
2024-05-09T16:23:27.213Z,28.06
2024-05-09T16:25:58.000Z,27.90
2024-05-09T16:28:27.031Z,27.72
2024-05-09T16:30:58.316Z,27.60
2024-05-09T16:33:28.763Z,27.48
2024-05-09T16:36:00.138Z,27.37
2024-05-09T16:38:27.752Z,27.27
2024-05-09T16:40:58.046Z,27.17
2024-05-09T16:43:25.809Z,27.06
2024-05-09T16:45:56.330Z,26.96
2024-05-09T16:48:24.080Z,26.85
2024-05-09T16:50:56.981Z,26.76
2024-05-09T16:53:25.849Z,26.68
2024-05-09T16:55:56.223Z,26.59
2024-05-09T16:58:24.735Z,26.52
2024-05-09T17:00:55.164Z,26.43
2024-05-09T17:03:23.764Z,26.35
2024-05-09T17:05:56.913Z,26.27
2024-05-09T17:08:24.596Z,26.20
2024-05-09T17:10:55.647Z,26.13
2024-05-09T17:13:26.203Z,26.05
2024-05-09T17:15:56.642Z,25.98
2024-05-09T17:18:27.389Z,25.92
2024-05-09T17:20:57.787Z,25.83
2024-05-09T17:25:55.769Z,25.69
2024-05-09T17:28:26.258Z,25.63
2024-05-09T17:30:54.043Z,25.57
2024-05-09T17:33:24.528Z,25.53
2024-05-09T17:35:58.068Z,25.47
2024-05-09T17:38:28.357Z,25.44
2024-05-09T17:40:56.260Z,25.41
2024-05-09T17:43:26.837Z,25.38
2024-05-09T17:45:54.736Z,25.34
2024-05-09T17:48:25.433Z,25.30
2024-05-09T17:50:53.045Z,25.24
2024-05-09T17:53:25.920Z,25.17
2024-05-09T17:55:55.862Z,25.10
2024-05-09T17:58:26.275Z,25.01
2024-05-09T18:00:54.005Z,24.94
2024-05-09T18:03:25.804Z,24.86
2024-05-09T18:05:53.703Z,24.76
2024-05-09T18:08:26.740Z,24.67
2024-05-09T18:10:55.523Z,24.60
2024-05-09T18:13:26.380Z,24.51
2024-05-09T18:15:54.120Z,24.41
2024-05-09T18:18:24.888Z,24.35
2024-05-09T18:20:52.762Z,24.25
2024-05-09T18:23:25.962Z,24.15
2024-05-09T18:25:55.212Z,24.08
2024-05-09T18:28:25.998Z,24.00
2024-05-09T18:30:53.675Z,23.91
2024-05-09T18:33:24.633Z,23.82
2024-05-09T18:35:53.238Z,23.75
2024-05-09T18:38:27.363Z,23.66
2024-05-09T18:40:56.028Z,23.58
2024-05-09T18:43:31.659Z,23.49
2024-05-09T18:46:06.674Z,23.41
2024-05-09T18:48:38.153Z,23.35
2024-05-09T18:51:06.651Z,23.27
2024-05-09T18:53:42.261Z,23.19
2024-05-09T18:56:13.007Z,23.13
2024-05-09T18:58:47.180Z,23.06
2024-05-09T19:01:16.204Z,22.99
2024-05-09T19:03:51.319Z,22.93
2024-05-09T19:06:23.896Z,22.86
2024-05-09T19:09:00.416Z,22.79
2024-05-09T19:11:29.398Z,22.72
2024-05-09T19:14:04.534Z,22.66
2024-05-09T19:16:33.016Z,22.61
2024-05-09T19:19:05.083Z,22.55
2024-05-09T19:21:33.749Z,22.50
2024-05-09T19:24:08.064Z,22.44
2024-05-09T19:26:39.012Z,22.40
2024-05-09T19:29:10.794Z,22.34
2024-05-09T19:31:41.760Z,22.29
2024-05-09T19:34:13.341Z,22.26
2024-05-09T19:36:42.887Z,22.23
2024-05-09T19:39:17.547Z,22.18
2024-05-09T19:41:46.244Z,22.15
2024-05-09T19:44:18.197Z,22.12
2024-05-09T19:46:47.856Z,22.10
2024-05-09T19:49:19.339Z,22.07
2024-05-09T19:51:47.668Z,22.05
2024-05-09T19:54:21.080Z,22.03
2024-05-09T19:56:48.985Z,22.02
2024-05-09T19:59:20.398Z,22.00
2024-05-09T20:01:50.979Z,21.96
2024-05-09T20:04:19.439Z,21.94
2024-05-09T20:06:51.224Z,21.90
2024-05-09T20:09:22.030Z,21.85
2024-05-09T20:11:53.448Z,21.83
2024-05-09T20:14:22.950Z,21.81
2024-05-09T20:16:54.556Z,21.76
2024-05-09T20:19:24.095Z,21.73
2024-05-09T20:21:56.717Z,21.68
2024-05-09T20:24:27.643Z,21.65
2024-05-09T20:26:59.432Z,21.63
2024-05-09T20:29:27.916Z,21.59
2024-05-09T20:31:59.962Z,21.55
2024-05-09T20:34:30.371Z,21.52
2024-05-09T20:37:01.609Z,21.49
2024-05-09T20:39:33.307Z,21.45
2024-05-09T20:42:06.826Z,21.42
2024-05-09T20:44:35.018Z,21.40
2024-05-09T20:47:05.741Z,21.38
2024-05-09T20:49:33.834Z,21.36
2024-05-09T20:52:04.162Z,21.34
2024-05-09T20:54:34.490Z,21.30
2024-05-09T20:57:04.906Z,21.29
2024-05-09T20:59:32.477Z,21.25
2024-05-09T21:02:02.842Z,21.23
2024-05-09T21:04:30.902Z,21.20
2024-05-09T21:07:01.275Z,21.18
2024-05-09T21:09:28.897Z,21.14
2024-05-09T21:12:01.940Z,21.11
2024-05-09T21:14:29.603Z,21.08
2024-05-09T21:17:00.051Z,21.02
2024-05-09T21:19:27.871Z,20.99
2024-05-09T21:21:58.201Z,20.96
2024-05-09T21:24:25.860Z,20.92
2024-05-09T21:26:56.696Z,20.89
2024-05-09T21:29:26.989Z,20.84
2024-05-09T21:31:57.201Z,20.81
2024-05-09T21:34:25.199Z,20.77
2024-05-09T21:36:55.530Z,20.73
2024-05-09T21:39:24.830Z,20.68
2024-05-09T21:41:55.072Z,20.64
2024-05-09T21:44:25.349Z,20.60
2024-05-09T21:46:55.640Z,20.57
2024-05-09T21:49:23.407Z,20.54
2024-05-09T21:51:53.775Z,20.53
2024-05-09T21:54:21.572Z,20.51
2024-05-09T21:56:51.825Z,20.46
2024-05-09T21:59:19.434Z,20.44
2024-05-09T22:01:52.376Z,20.39
2024-05-09T22:04:20.147Z,20.37
2024-05-09T22:06:50.496Z,20.34
2024-05-09T22:09:18.124Z,20.30
2024-05-09T22:11:51.357Z,20.26
2024-05-09T22:14:21.321Z,20.21
2024-05-09T22:16:54.217Z,20.17
2024-05-09T22:19:21.879Z,20.13
2024-05-09T22:21:52.235Z,20.09
2024-05-09T22:24:19.889Z,20.05
2024-05-09T22:26:52.192Z,20.02
2024-05-09T22:29:19.794Z,19.99
2024-05-09T22:31:49.989Z,19.95
2024-05-09T22:34:20.508Z,19.90
2024-05-09T22:36:50.974Z,19.90
2024-05-09T22:39:18.638Z,19.85
2024-05-09T22:41:48.931Z,19.82
2024-05-09T22:44:16.593Z,19.79
2024-05-09T22:46:46.778Z,19.76
2024-05-09T22:49:14.572Z,19.70
2024-05-09T22:51:47.539Z,19.65
2024-05-09T22:54:15.226Z,19.62
2024-05-09T22:56:45.553Z,19.58
2024-05-09T22:59:13.370Z,19.54
2024-05-09T23:01:43.708Z,19.50
2024-05-09T23:04:11.498Z,19.46
2024-05-09T23:06:46.394Z,19.40
2024-05-09T23:09:14.014Z,19.38
2024-05-09T23:11:45.876Z,19.32
2024-05-09T23:14:13.541Z,19.29
2024-05-09T23:16:44.041Z,19.25
2024-05-09T23:19:11.729Z,19.21
2024-05-09T23:21:42.797Z,19.18
2024-05-09T23:24:13.144Z,19.14
2024-05-09T23:26:45.834Z,19.13
2024-05-09T23:29:13.470Z,19.10
2024-05-09T23:31:44.284Z,19.08
2024-05-09T23:34:12.117Z,19.05
2024-05-09T23:36:42.485Z,19.01
2024-05-09T23:39:12.871Z,18.97
2024-05-09T23:41:43.082Z,18.95
2024-05-09T23:44:10.687Z,18.92
2024-05-09T23:46:41.079Z,18.90
2024-05-09T23:49:09.160Z,18.87
2024-05-09T23:51:39.507Z,18.85
2024-05-09T23:54:08.685Z,18.82
2024-05-09T23:56:41.542Z,18.77
2024-05-09T23:59:09.170Z,18.77
